sensor_id;sensor_type;location;lat;lon;timestamp;temperature;humidity
3262;DHT22;1643;47.746;9.000;2023-03-23T00:01:16;12.30;96.70
3262;DHT22;1643;47.746;9.000;2023-03-23T00:03:46;12.30;96.70
3262;DHT22;1643;47.746;9.000;2023-03-23T00:06:12;12.30;96.80
3262;DHT22;1643;47.746;9.000;2023-03-23T00:08:43;12.30;96.80
3262;DHT22;1643;47.746;9.000;2023-03-23T00:11:17;12.30;96.90
3262;DHT22;1643;47.746;9.000;2023-03-23T00:13:45;12.30;96.90
3262;DHT22;1643;47.746;9.000;2023-03-23T00:16:12;12.30;96.90
3262;DHT22;1643;47.746;9.000;2023-03-23T00:18:48;12.30;96.90
3262;DHT22;1643;47.746;9.000;2023-03-23T00:21:18;12.30;96.90
3262;DHT22;1643;47.746;9.000;2023-03-23T00:23:43;12.30;97.00
3262;DHT22;1643;47.746;9.000;2023-03-23T00:26:11;12.30;97.10
3262;DHT22;1643;47.746;9.000;2023-03-23T00:28:37;12.30;97.10
3262;DHT22;1643;47.746;9.000;2023-03-23T00:31:06;12.30;97.40
3262;DHT22;1643;47.746;9.000;2023-03-23T00:33:34;12.30;97.00
3262;DHT22;1643;47.746;9.000;2023-03-23T00:36:04;12.30;97.00
3262;DHT22;1643;47.746;9.000;2023-03-23T00:38:30;12.30;97.00
3262;DHT22;1643;47.746;9.000;2023-03-23T00:40:56;12.30;97.00
3262;DHT22;1643;47.746;9.000;2023-03-23T00:43:23;12.30;97.00
3262;DHT22;1643;47.746;9.000;2023-03-23T00:45:50;12.30;97.20
3262;DHT22;1643;47.746;9.000;2023-03-23T00:48:24;12.30;97.20
3262;DHT22;1643;47.746;9.000;2023-03-23T00:50:51;12.30;97.20
3262;DHT22;1643;47.746;9.000;2023-03-23T00:53:18;12.30;97.30
3262;DHT22;1643;47.746;9.000;2023-03-23T00:55:45;12.30;97.30
3262;DHT22;1643;47.746;9.000;2023-03-23T00:58:12;12.30;97.30
3262;DHT22;1643;47.746;9.000;2023-03-23T01:00:38;12.20;97.30
3262;DHT22;1643;47.746;9.000;2023-03-23T01:03:05;12.10;97.30
3262;DHT22;1643;47.746;9.000;2023-03-23T01:05:35;12.10;97.30
3262;DHT22;1643;47.746;9.000;2023-03-23T01:08:01;12.10;97.30
3262;DHT22;1643;47.746;9.000;2023-03-23T01:10:27;12.10;97.30
3262;DHT22;1643;47.746;9.000;2023-03-23T01:12:54;12.10;97.40
3262;DHT22;1643;47.746;9.000;2023-03-23T01:15:20;12.00;97.60
3262;DHT22;1643;47.746;9.000;2023-03-23T01:17:46;12.00;97.70
3262;DHT22;1643;47.746;9.000;2023-03-23T01:20:13;12.00;97.80
3262;DHT22;1643;47.746;9.000;2023-03-23T01:22:42;12.00;97.80
3262;DHT22;1643;47.746;9.000;2023-03-23T01:25:10;12.00;98.20
3262;DHT22;1643;47.746;9.000;2023-03-23T01:27:36;12.00;97.90
3262;DHT22;1643;47.746;9.000;2023-03-23T01:30:04;12.00;97.90
3262;DHT22;1643;47.746;9.000;2023-03-23T01:32:30;12.00;98.10
3262;DHT22;1643;47.746;9.000;2023-03-23T01:34:55;12.00;98.10
3262;DHT22;1643;47.746;9.000;2023-03-23T01:37:21;12.00;98.10
3262;DHT22;1643;47.746;9.000;2023-03-23T01:39:53;12.00;98.10
3262;DHT22;1643;47.746;9.000;2023-03-23T01:42:31;12.00;98.00
3262;DHT22;1643;47.746;9.000;2023-03-23T01:45:30;12.00;98.00
3262;DHT22;1643;47.746;9.000;2023-03-23T01:48:01;12.00;98.10
3262;DHT22;1643;47.746;9.000;2023-03-23T01:50:29;12.00;98.20
3262;DHT22;1643;47.746;9.000;2023-03-23T01:53:01;12.00;98.20
3262;DHT22;1643;47.746;9.000;2023-03-23T01:55:28;12.00;98.20
3262;DHT22;1643;47.746;9.000;2023-03-23T01:57:55;12.00;98.20
3262;DHT22;1643;47.746;9.000;2023-03-23T02:00:22;12.00;98.30
3262;DHT22;1643;47.746;9.000;2023-03-23T02:02:49;12.00;98.40
3262;DHT22;1643;47.746;9.000;2023-03-23T02:07:53;11.90;98.50
3262;DHT22;1643;47.746;9.000;2023-03-23T02:10:19;12.00;98.60
3262;DHT22;1643;47.746;9.000;2023-03-23T02:12:44;12.00;98.60
3262;DHT22;1643;47.746;9.000;2023-03-23T02:15:10;12.00;98.60
3262;DHT22;1643;47.746;9.000;2023-03-23T02:17:51;12.00;98.70
3262;DHT22;1643;47.746;9.000;2023-03-23T02:23:45;12.00;98.70
3262;DHT22;1643;47.746;9.000;2023-03-23T02:26:43;12.00;98.70
3262;DHT22;1643;47.746;9.000;2023-03-23T02:29:29;12.00;98.80
3262;DHT22;1643;47.746;9.000;2023-03-23T02:32:04;12.00;98.80
3262;DHT22;1643;47.746;9.000;2023-03-23T02:34:41;11.90;98.70
3262;DHT22;1643;47.746;9.000;2023-03-23T02:37:33;12.00;98.80
3262;DHT22;1643;47.746;9.000;2023-03-23T02:40:07;12.10;98.80
3262;DHT22;1643;47.746;9.000;2023-03-23T02:42:38;12.10;98.80
3262;DHT22;1643;47.746;9.000;2023-03-23T02:45:08;12.10;98.90
3262;DHT22;1643;47.746;9.000;2023-03-23T02:47:35;12.00;98.90
3262;DHT22;1643;47.746;9.000;2023-03-23T02:50:03;12.00;99.00
3262;DHT22;1643;47.746;9.000;2023-03-23T02:52:31;12.00;99.10
3262;DHT22;1643;47.746;9.000;2023-03-23T02:54:58;12.00;99.10
3262;DHT22;1643;47.746;9.000;2023-03-23T02:57:26;11.90;99.10
3262;DHT22;1643;47.746;9.000;2023-03-23T02:59:53;12.00;99.20
3262;DHT22;1643;47.746;9.000;2023-03-23T03:02:34;12.00;99.20
3262;DHT22;1643;47.746;9.000;2023-03-23T03:08:08;11.90;99.40
3262;DHT22;1643;47.746;9.000;2023-03-23T03:16:29;11.90;99.90
3262;DHT22;1643;47.746;9.000;2023-03-23T03:21:40;11.90;99.90
3262;DHT22;1643;47.746;9.000;2023-03-23T03:24:08;11.90;99.90
3262;DHT22;1643;47.746;9.000;2023-03-23T03:26:39;11.80;99.90
3262;DHT22;1643;47.746;9.000;2023-03-23T03:29:06;11.90;99.90
3262;DHT22;1643;47.746;9.000;2023-03-23T03:31:36;11.90;99.90
3262;DHT22;1643;47.746;9.000;2023-03-23T03:34:03;11.90;99.90
3262;DHT22;1643;47.746;9.000;2023-03-23T03:36:32;11.90;99.90
3262;DHT22;1643;47.746;9.000;2023-03-23T03:39:07;11.90;99.90
3262;DHT22;1643;47.746;9.000;2023-03-23T03:41:35;11.90;99.90
3262;DHT22;1643;47.746;9.000;2023-03-23T03:44:01;11.90;99.90
3262;DHT22;1643;47.746;9.000;2023-03-23T03:46:27;12.00;99.90
3262;DHT22;1643;47.746;9.000;2023-03-23T03:48:55;12.00;99.90
3262;DHT22;1643;47.746;9.000;2023-03-23T03:51:25;12.00;99.90
3262;DHT22;1643;47.746;9.000;2023-03-23T03:53:51;12.00;99.90
3262;DHT22;1643;47.746;9.000;2023-03-23T03:56:16;12.00;99.80
3262;DHT22;1643;47.746;9.000;2023-03-23T03:58:42;12.00;99.90
3262;DHT22;1643;47.746;9.000;2023-03-23T04:01:09;11.90;99.90
3262;DHT22;1643;47.746;9.000;2023-03-23T04:03:39;11.80;99.90
3262;DHT22;1643;47.746;9.000;2023-03-23T04:06:05;11.80;99.90
3262;DHT22;1643;47.746;9.000;2023-03-23T04:08:31;11.70;99.90
3262;DHT22;1643;47.746;9.000;2023-03-23T04:10:58;11.80;99.90
3262;DHT22;1643;47.746;9.000;2023-03-23T04:13:23;11.80;99.90
3262;DHT22;1643;47.746;9.000;2023-03-23T04:15:49;11.90;99.90
3262;DHT22;1643;47.746;9.000;2023-03-23T04:18:16;11.90;99.90
3262;DHT22;1643;47.746;9.000;2023-03-23T04:20:44;12.00;99.90
3262;DHT22;1643;47.746;9.000;2023-03-23T04:23:15;12.00;99.90
3262;DHT22;1643;47.746;9.000;2023-03-23T04:25:49;12.00;99.90
3262;DHT22;1643;47.746;9.000;2023-03-23T04:28:16;12.00;99.90
3262;DHT22;1643;47.746;9.000;2023-03-23T04:30:44;12.00;99.90
3262;DHT22;1643;47.746;9.000;2023-03-23T04:33:11;12.00;99.90
3262;DHT22;1643;47.746;9.000;2023-03-23T04:35:42;12.00;99.90
3262;DHT22;1643;47.746;9.000;2023-03-23T04:38:17;12.00;99.90
3262;DHT22;1643;47.746;9.000;2023-03-23T04:40:46;11.90;99.90
3262;DHT22;1643;47.746;9.000;2023-03-23T04:43:12;11.90;99.90
3262;DHT22;1643;47.746;9.000;2023-03-23T04:45:38;12.00;99.90
3262;DHT22;1643;47.746;9.000;2023-03-23T04:48:07;12.00;99.90
3262;DHT22;1643;47.746;9.000;2023-03-23T04:50:34;12.00;99.90
3262;DHT22;1643;47.746;9.000;2023-03-23T04:53:01;11.90;99.90
3262;DHT22;1643;47.746;9.000;2023-03-23T04:55:34;11.90;99.90
3262;DHT22;1643;47.746;9.000;2023-03-23T04:58:04;12.00;99.90
3262;DHT22;1643;47.746;9.000;2023-03-23T05:00:32;12.00;99.90
3262;DHT22;1643;47.746;9.000;2023-03-23T05:02:58;11.80;99.90
3262;DHT22;1643;47.746;9.000;2023-03-23T05:05:24;11.80;99.90
3262;DHT22;1643;47.746;9.000;2023-03-23T05:07:51;11.90;99.90
3262;DHT22;1643;47.746;9.000;2023-03-23T05:10:17;11.90;99.90
3262;DHT22;1643;47.746;9.000;2023-03-23T05:12:43;11.90;99.90
3262;DHT22;1643;47.746;9.000;2023-03-23T05:15:11;11.90;99.90
3262;DHT22;1643;47.746;9.000;2023-03-23T05:17:37;11.90;99.90
3262;DHT22;1643;47.746;9.000;2023-03-23T05:20:04;11.80;99.90
3262;DHT22;1643;47.746;9.000;2023-03-23T05:22:32;11.80;99.90
3262;DHT22;1643;47.746;9.000;2023-03-23T05:24:59;11.80;99.90
3262;DHT22;1643;47.746;9.000;2023-03-23T05:27:25;11.70;99.90
3262;DHT22;1643;47.746;9.000;2023-03-23T05:29:53;11.70;99.90
3262;DHT22;1643;47.746;9.000;2023-03-23T05:32:19;11.60;99.90
3262;DHT22;1643;47.746;9.000;2023-03-23T05:34:46;11.50;99.90
3262;DHT22;1643;47.746;9.000;2023-03-23T05:37:12;11.50;99.90
3262;DHT22;1643;47.746;9.000;2023-03-23T05:39:39;11.50;99.90
3262;DHT22;1643;47.746;9.000;2023-03-23T05:42:05;11.50;99.90
3262;DHT22;1643;47.746;9.000;2023-03-23T05:44:31;11.50;99.90
3262;DHT22;1643;47.746;9.000;2023-03-23T05:46:57;11.50;99.90
3262;DHT22;1643;47.746;9.000;2023-03-23T05:49:23;11.50;99.90
3262;DHT22;1643;47.746;9.000;2023-03-23T05:51:49;11.50;99.90
3262;DHT22;1643;47.746;9.000;2023-03-23T05:54:16;11.50;99.90
3262;DHT22;1643;47.746;9.000;2023-03-23T05:56:42;11.60;99.90
3262;DHT22;1643;47.746;9.000;2023-03-23T05:59:08;11.60;99.90
3262;DHT22;1643;47.746;9.000;2023-03-23T06:01:35;11.60;99.90
3262;DHT22;1643;47.746;9.000;2023-03-23T06:04:01;11.60;99.90
3262;DHT22;1643;47.746;9.000;2023-03-23T06:06:28;11.60;99.90
3262;DHT22;1643;47.746;9.000;2023-03-23T06:08:55;11.70;99.90
3262;DHT22;1643;47.746;9.000;2023-03-23T06:11:21;11.70;99.90
3262;DHT22;1643;47.746;9.000;2023-03-23T06:13:46;11.70;99.90
3262;DHT22;1643;47.746;9.000;2023-03-23T06:16:13;11.70;99.90
3262;DHT22;1643;47.746;9.000;2023-03-23T06:18:40;11.70;99.90
3262;DHT22;1643;47.746;9.000;2023-03-23T06:21:06;11.70;99.90
3262;DHT22;1643;47.746;9.000;2023-03-23T06:23:32;11.70;99.90
3262;DHT22;1643;47.746;9.000;2023-03-23T06:26:05;11.70;99.90
3262;DHT22;1643;47.746;9.000;2023-03-23T06:28:31;11.70;99.90
3262;DHT22;1643;47.746;9.000;2023-03-23T06:31:05;11.70;99.90
3262;DHT22;1643;47.746;9.000;2023-03-23T06:33:33;11.80;99.90
3262;DHT22;1643;47.746;9.000;2023-03-23T06:35:59;11.80;99.90
3262;DHT22;1643;47.746;9.000;2023-03-23T06:38:25;11.80;99.90
3262;DHT22;1643;47.746;9.000;2023-03-23T06:40:55;11.80;99.90
3262;DHT22;1643;47.746;9.000;2023-03-23T06:43:21;11.80;99.90
3262;DHT22;1643;47.746;9.000;2023-03-23T06:45:47;11.90;99.90
3262;DHT22;1643;47.746;9.000;2023-03-23T06:48:12;12.00;99.90
3262;DHT22;1643;47.746;9.000;2023-03-23T06:50:38;12.10;99.90
3262;DHT22;1643;47.746;9.000;2023-03-23T06:53:07;12.10;99.90
3262;DHT22;1643;47.746;9.000;2023-03-23T06:55:32;12.10;99.90
3262;DHT22;1643;47.746;9.000;2023-03-23T06:57:58;12.20;99.90
3262;DHT22;1643;47.746;9.000;2023-03-23T07:00:26;12.30;99.90
3262;DHT22;1643;47.746;9.000;2023-03-23T07:02:52;12.30;99.90
3262;DHT22;1643;47.746;9.000;2023-03-23T07:05:18;12.40;99.90
3262;DHT22;1643;47.746;9.000;2023-03-23T07:07:45;12.40;99.90
3262;DHT22;1643;47.746;9.000;2023-03-23T07:10:11;12.50;99.90
3262;DHT22;1643;47.746;9.000;2023-03-23T07:12:37;12.50;99.90
3262;DHT22;1643;47.746;9.000;2023-03-23T07:15:04;12.50;99.90
3262;DHT22;1643;47.746;9.000;2023-03-23T07:17:30;12.60;99.90
3262;DHT22;1643;47.746;9.000;2023-03-23T07:19:55;12.70;99.90
3262;DHT22;1643;47.746;9.000;2023-03-23T07:22:21;12.70;99.90
3262;DHT22;1643;47.746;9.000;2023-03-23T07:24:47;12.80;99.90
3262;DHT22;1643;47.746;9.000;2023-03-23T07:27:12;12.90;99.90
3262;DHT22;1643;47.746;9.000;2023-03-23T07:29:39;13.00;99.90
3262;DHT22;1643;47.746;9.000;2023-03-23T07:32:06;13.10;99.90
3262;DHT22;1643;47.746;9.000;2023-03-23T07:34:32;13.20;99.90
3262;DHT22;1643;47.746;9.000;2023-03-23T07:36:58;13.20;99.90
3262;DHT22;1643;47.746;9.000;2023-03-23T07:39:24;13.30;99.90
3262;DHT22;1643;47.746;9.000;2023-03-23T07:41:51;13.40;99.90
3262;DHT22;1643;47.746;9.000;2023-03-23T07:44:17;13.40;99.90
3262;DHT22;1643;47.746;9.000;2023-03-23T07:46:43;13.50;99.90
3262;DHT22;1643;47.746;9.000;2023-03-23T07:49:09;13.50;99.90
3262;DHT22;1643;47.746;9.000;2023-03-23T07:51:36;13.60;99.90
3262;DHT22;1643;47.746;9.000;2023-03-23T07:54:04;13.50;99.90
3262;DHT22;1643;47.746;9.000;2023-03-23T07:56:30;13.50;99.90
3262;DHT22;1643;47.746;9.000;2023-03-23T07:58:56;13.40;99.90
3262;DHT22;1643;47.746;9.000;2023-03-23T08:01:22;13.40;99.90
3262;DHT22;1643;47.746;9.000;2023-03-23T08:03:49;13.40;99.90
3262;DHT22;1643;47.746;9.000;2023-03-23T08:06:15;13.50;99.90
3262;DHT22;1643;47.746;9.000;2023-03-23T08:08:41;13.60;99.90
3262;DHT22;1643;47.746;9.000;2023-03-23T08:11:07;13.70;99.90
3262;DHT22;1643;47.746;9.000;2023-03-23T08:13:36;13.70;99.90
3262;DHT22;1643;47.746;9.000;2023-03-23T08:16:01;13.70;99.90
3262;DHT22;1643;47.746;9.000;2023-03-23T08:18:31;13.80;99.90
3262;DHT22;1643;47.746;9.000;2023-03-23T08:20:57;13.90;99.90
3262;DHT22;1643;47.746;9.000;2023-03-23T08:23:23;13.90;99.90
3262;DHT22;1643;47.746;9.000;2023-03-23T08:25:49;13.90;99.90
3262;DHT22;1643;47.746;9.000;2023-03-23T08:28:17;14.00;99.90
3262;DHT22;1643;47.746;9.000;2023-03-23T08:30:42;14.10;99.90
3262;DHT22;1643;47.746;9.000;2023-03-23T08:33:08;14.20;99.90
3262;DHT22;1643;47.746;9.000;2023-03-23T08:35:36;14.30;99.90
3262;DHT22;1643;47.746;9.000;2023-03-23T08:38:02;14.30;99.90
3262;DHT22;1643;47.746;9.000;2023-03-23T08:40:28;14.40;99.90
3262;DHT22;1643;47.746;9.000;2023-03-23T08:42:55;14.50;99.90
3262;DHT22;1643;47.746;9.000;2023-03-23T08:45:23;14.50;99.90
3262;DHT22;1643;47.746;9.000;2023-03-23T08:47:49;14.50;99.90
3262;DHT22;1643;47.746;9.000;2023-03-23T08:50:20;14.50;99.90
3262;DHT22;1643;47.746;9.000;2023-03-23T08:52:48;14.60;99.90
3262;DHT22;1643;47.746;9.000;2023-03-23T08:55:14;14.70;99.90
3262;DHT22;1643;47.746;9.000;2023-03-23T08:57:41;14.70;99.90
3262;DHT22;1643;47.746;9.000;2023-03-23T09:00:10;14.80;99.80
3262;DHT22;1643;47.746;9.000;2023-03-23T09:02:46;14.80;99.60
3262;DHT22;1643;47.746;9.000;2023-03-23T09:05:13;14.80;99.40
3262;DHT22;1643;47.746;9.000;2023-03-23T09:07:42;14.90;99.40
3262;DHT22;1643;47.746;9.000;2023-03-23T09:10:08;14.90;99.10
3262;DHT22;1643;47.746;9.000;2023-03-23T09:12:35;15.00;99.20
3262;DHT22;1643;47.746;9.000;2023-03-23T09:15:03;14.90;99.00
3262;DHT22;1643;47.746;9.000;2023-03-23T09:17:42;15.10;99.10
3262;DHT22;1643;47.746;9.000;2023-03-23T09:20:09;15.20;99.00
3262;DHT22;1643;47.746;9.000;2023-03-23T09:22:46;15.20;98.70
3262;DHT22;1643;47.746;9.000;2023-03-23T09:25:15;15.20;98.50
3262;DHT22;1643;47.746;9.000;2023-03-23T09:27:42;15.20;98.10
3262;DHT22;1643;47.746;9.000;2023-03-23T09:30:12;15.30;97.70
3262;DHT22;1643;47.746;9.000;2023-03-23T09:32:39;15.30;97.60
3262;DHT22;1643;47.746;9.000;2023-03-23T09:35:07;15.30;97.70
3262;DHT22;1643;47.746;9.000;2023-03-23T09:37:34;15.30;97.60
3262;DHT22;1643;47.746;9.000;2023-03-23T09:40:06;15.30;97.70
3262;DHT22;1643;47.746;9.000;2023-03-23T09:51:00;15.60;97.80
3262;DHT22;1643;47.746;9.000;2023-03-23T09:53:37;15.70;97.80
3262;DHT22;1643;47.746;9.000;2023-03-23T09:56:11;15.80;97.60
3262;DHT22;1643;47.746;9.000;2023-03-23T09:58:55;15.90;97.50
3262;DHT22;1643;47.746;9.000;2023-03-23T10:01:26;15.80;97.30
3262;DHT22;1643;47.746;9.000;2023-03-23T10:04:02;15.90;97.30
3262;DHT22;1643;47.746;9.000;2023-03-23T10:06:29;16.00;97.20
3262;DHT22;1643;47.746;9.000;2023-03-23T10:08:57;16.00;97.20
3262;DHT22;1643;47.746;9.000;2023-03-23T10:12:02;16.10;97.20
3262;DHT22;1643;47.746;9.000;2023-03-23T10:25:29;16.00;96.90
3262;DHT22;1643;47.746;9.000;2023-03-23T10:30:38;16.00;96.40
3262;DHT22;1643;47.746;9.000;2023-03-23T10:33:08;16.00;96.10
3262;DHT22;1643;47.746;9.000;2023-03-23T10:35:39;15.90;96.10
3262;DHT22;1643;47.746;9.000;2023-03-23T10:38:26;15.80;96.20
3262;DHT22;1643;47.746;9.000;2023-03-23T10:41:06;15.80;96.20
3262;DHT22;1643;47.746;9.000;2023-03-23T10:43:34;15.90;96.10
3262;DHT22;1643;47.746;9.000;2023-03-23T10:46:04;15.90;96.10
3262;DHT22;1643;47.746;9.000;2023-03-23T10:48:35;16.00;96.10
3262;DHT22;1643;47.746;9.000;2023-03-23T10:51:04;16.00;95.90
3262;DHT22;1643;47.746;9.000;2023-03-23T10:53:37;16.20;95.20
3262;DHT22;1643;47.746;9.000;2023-03-23T10:56:05;16.30;95.20
3262;DHT22;1643;47.746;9.000;2023-03-23T10:58:34;16.40;94.90
3262;DHT22;1643;47.746;9.000;2023-03-23T11:01:02;16.30;94.70
3262;DHT22;1643;47.746;9.000;2023-03-23T11:06:00;16.20;94.80
3262;DHT22;1643;47.746;9.000;2023-03-23T11:08:32;16.20;94.90
3262;DHT22;1643;47.746;9.000;2023-03-23T11:11:10;16.20;95.00
3262;DHT22;1643;47.746;9.000;2023-03-23T11:13:41;16.20;94.90
3262;DHT22;1643;47.746;9.000;2023-03-23T11:16:09;16.20;94.90
3262;DHT22;1643;47.746;9.000;2023-03-23T11:18:41;16.20;94.90
3262;DHT22;1643;47.746;9.000;2023-03-23T11:21:09;16.20;95.40
3262;DHT22;1643;47.746;9.000;2023-03-23T11:23:39;16.30;95.50
3262;DHT22;1643;47.746;9.000;2023-03-23T11:26:17;16.30;95.40
3262;DHT22;1643;47.746;9.000;2023-03-23T11:28:46;16.30;95.30
3262;DHT22;1643;47.746;9.000;2023-03-23T11:31:13;16.20;95.40
3262;DHT22;1643;47.746;9.000;2023-03-23T11:33:55;16.20;95.50
3262;DHT22;1643;47.746;9.000;2023-03-23T11:36:40;16.20;95.60
3262;DHT22;1643;47.746;9.000;2023-03-23T11:41:54;16.30;95.70
3262;DHT22;1643;47.746;9.000;2023-03-23T11:44:22;16.30;95.70
3262;DHT22;1643;47.746;9.000;2023-03-23T11:46:51;16.30;95.50
3262;DHT22;1643;47.746;9.000;2023-03-23T11:49:29;16.40;95.50
3262;DHT22;1643;47.746;9.000;2023-03-23T11:52:02;16.50;95.30
3262;DHT22;1643;47.746;9.000;2023-03-23T11:54:34;16.60;95.20
3262;DHT22;1643;47.746;9.000;2023-03-23T11:57:07;16.70;94.80
3262;DHT22;1643;47.746;9.000;2023-03-23T11:59:35;16.70;94.70
3262;DHT22;1643;47.746;9.000;2023-03-23T12:02:22;16.80;94.60
3262;DHT22;1643;47.746;9.000;2023-03-23T12:07:54;16.70;94.40
3262;DHT22;1643;47.746;9.000;2023-03-23T12:16:00;16.70;94.30
3262;DHT22;1643;47.746;9.000;2023-03-23T12:18:48;16.70;94.30
3262;DHT22;1643;47.746;9.000;2023-03-23T12:21:24;16.80;94.30
3262;DHT22;1643;47.746;9.000;2023-03-23T12:26:52;16.70;94.30
3262;DHT22;1643;47.746;9.000;2023-03-23T12:29:38;16.70;94.30
3262;DHT22;1643;47.746;9.000;2023-03-23T12:35:02;16.80;94.10
3262;DHT22;1643;47.746;9.000;2023-03-23T12:43:32;16.80;94.20
3262;DHT22;1643;47.746;9.000;2023-03-23T13:02:20;16.80;94.40
3262;DHT22;1643;47.746;9.000;2023-03-23T13:07:49;16.90;94.60
3262;DHT22;1643;47.746;9.000;2023-03-23T13:10:47;16.90;94.70
3262;DHT22;1643;47.746;9.000;2023-03-23T13:13:18;17.00;94.30
3262;DHT22;1643;47.746;9.000;2023-03-23T13:18:24;16.90;94.60
3262;DHT22;1643;47.746;9.000;2023-03-23T13:23:46;17.00;94.80
3262;DHT22;1643;47.746;9.000;2023-03-23T13:26:22;17.00;94.60
3262;DHT22;1643;47.746;9.000;2023-03-23T13:28:58;17.00;95.30
3262;DHT22;1643;47.746;9.000;2023-03-23T13:36:38;16.80;95.20
3262;DHT22;1643;47.746;9.000;2023-03-23T13:39:06;16.70;95.60
3262;DHT22;1643;47.746;9.000;2023-03-23T13:44:26;16.70;95.50
3262;DHT22;1643;47.746;9.000;2023-03-23T13:47:04;16.70;95.20
3262;DHT22;1643;47.746;9.000;2023-03-23T13:49:32;16.80;95.20
3262;DHT22;1643;47.746;9.000;2023-03-23T13:52:17;16.80;95.20
3262;DHT22;1643;47.746;9.000;2023-03-23T13:54:46;16.70;95.40
3262;DHT22;1643;47.746;9.000;2023-03-23T13:57:23;16.70;96.10
3262;DHT22;1643;47.746;9.000;2023-03-23T13:59:56;16.60;96.50
3262;DHT22;1643;47.746;9.000;2023-03-23T14:02:39;16.50;96.80
3262;DHT22;1643;47.746;9.000;2023-03-23T14:07:59;16.40;97.20
3262;DHT22;1643;47.746;9.000;2023-03-23T14:10:33;16.40;97.30
3262;DHT22;1643;47.746;9.000;2023-03-23T14:13:00;16.50;97.50
3262;DHT22;1643;47.746;9.000;2023-03-23T14:15:30;16.50;97.50
3262;DHT22;1643;47.746;9.000;2023-03-23T14:17:57;16.50;97.60
3262;DHT22;1643;47.746;9.000;2023-03-23T14:20:30;16.40;97.50
3262;DHT22;1643;47.746;9.000;2023-03-23T14:22:59;16.40;97.40
3262;DHT22;1643;47.746;9.000;2023-03-23T14:25:27;16.40;97.40
3262;DHT22;1643;47.746;9.000;2023-03-23T14:27:54;16.50;97.30
3262;DHT22;1643;47.746;9.000;2023-03-23T14:30:22;16.40;97.20
3262;DHT22;1643;47.746;9.000;2023-03-23T14:32:48;16.50;97.20
3262;DHT22;1643;47.746;9.000;2023-03-23T14:35:26;16.50;96.90
3262;DHT22;1643;47.746;9.000;2023-03-23T14:37:54;16.50;96.90
3262;DHT22;1643;47.746;9.000;2023-03-23T14:40:20;16.50;96.80
3262;DHT22;1643;47.746;9.000;2023-03-23T14:42:46;16.50;96.70
3262;DHT22;1643;47.746;9.000;2023-03-23T14:45:17;16.60;96.00
3262;DHT22;1643;47.746;9.000;2023-03-23T14:47:56;16.60;95.80
3262;DHT22;1643;47.746;9.000;2023-03-23T14:50:29;16.60;95.70
3262;DHT22;1643;47.746;9.000;2023-03-23T14:53:15;16.50;95.60
3262;DHT22;1643;47.746;9.000;2023-03-23T14:55:43;16.60;95.70
3262;DHT22;1643;47.746;9.000;2023-03-23T14:58:14;16.70;95.50
3262;DHT22;1643;47.746;9.000;2023-03-23T15:00:43;16.60;95.30
3262;DHT22;1643;47.746;9.000;2023-03-23T15:03:14;16.60;95.30
3262;DHT22;1643;47.746;9.000;2023-03-23T15:05:48;16.60;94.90
3262;DHT22;1643;47.746;9.000;2023-03-23T15:08:40;16.60;94.90
3262;DHT22;1643;47.746;9.000;2023-03-23T15:13:49;16.60;94.80
3262;DHT22;1643;47.746;9.000;2023-03-23T15:16:20;16.60;94.90
3262;DHT22;1643;47.746;9.000;2023-03-23T15:18:59;16.70;94.70
3262;DHT22;1643;47.746;9.000;2023-03-23T15:21:46;16.60;94.80
3262;DHT22;1643;47.746;9.000;2023-03-23T15:24:33;16.80;94.60
3262;DHT22;1643;47.746;9.000;2023-03-23T15:29:52;16.70;94.60
3262;DHT22;1643;47.746;9.000;2023-03-23T15:32:23;16.70;94.40
3262;DHT22;1643;47.746;9.000;2023-03-23T15:34:49;16.70;94.40
3262;DHT22;1643;47.746;9.000;2023-03-23T15:37:21;16.70;94.50
3262;DHT22;1643;47.746;9.000;2023-03-23T15:39:47;16.80;94.30
3262;DHT22;1643;47.746;9.000;2023-03-23T15:42:32;16.80;94.20
3262;DHT22;1643;47.746;9.000;2023-03-23T15:47:46;16.70;95.10
3262;DHT22;1643;47.746;9.000;2023-03-23T15:50:32;16.60;95.40
3262;DHT22;1643;47.746;9.000;2023-03-23T15:52:58;16.60;95.60
3262;DHT22;1643;47.746;9.000;2023-03-23T15:55:29;16.70;95.60
3262;DHT22;1643;47.746;9.000;2023-03-23T15:57:56;16.70;95.50
3262;DHT22;1643;47.746;9.000;2023-03-23T16:00:25;16.70;95.40
3262;DHT22;1643;47.746;9.000;2023-03-23T16:02:58;16.70;95.70
3262;DHT22;1643;47.746;9.000;2023-03-23T16:05:26;16.70;95.90
3262;DHT22;1643;47.746;9.000;2023-03-23T16:07:52;16.60;95.90
3262;DHT22;1643;47.746;9.000;2023-03-23T16:10:20;16.50;96.00
3262;DHT22;1643;47.746;9.000;2023-03-23T16:12:46;16.50;96.10
3262;DHT22;1643;47.746;9.000;2023-03-23T16:15:13;16.50;96.10
3262;DHT22;1643;47.746;9.000;2023-03-23T16:17:40;16.50;96.00
3262;DHT22;1643;47.746;9.000;2023-03-23T16:20:15;16.60;96.00
3262;DHT22;1643;47.746;9.000;2023-03-23T16:22:41;16.60;96.20
3262;DHT22;1643;47.746;9.000;2023-03-23T16:25:08;16.60;96.00
3262;DHT22;1643;47.746;9.000;2023-03-23T16:27:34;16.50;95.90
3262;DHT22;1643;47.746;9.000;2023-03-23T16:30:00;16.50;95.80
3262;DHT22;1643;47.746;9.000;2023-03-23T16:32:28;16.60;95.80
3262;DHT22;1643;47.746;9.000;2023-03-23T16:34:53;16.60;95.70
3262;DHT22;1643;47.746;9.000;2023-03-23T16:37:20;16.50;95.80
3262;DHT22;1643;47.746;9.000;2023-03-23T16:39:46;16.40;96.10
3262;DHT22;1643;47.746;9.000;2023-03-23T16:42:11;16.40;96.10
3262;DHT22;1643;47.746;9.000;2023-03-23T16:44:37;16.40;96.10
3262;DHT22;1643;47.746;9.000;2023-03-23T16:47:02;16.40;96.10
3262;DHT22;1643;47.746;9.000;2023-03-23T16:49:28;16.40;96.10
3262;DHT22;1643;47.746;9.000;2023-03-23T16:51:54;16.40;96.00
3262;DHT22;1643;47.746;9.000;2023-03-23T16:54:20;16.40;96.00
3262;DHT22;1643;47.746;9.000;2023-03-23T16:56:45;16.40;95.90
3262;DHT22;1643;47.746;9.000;2023-03-23T16:59:13;16.50;95.70
3262;DHT22;1643;47.746;9.000;2023-03-23T17:01:39;16.40;95.70
3262;DHT22;1643;47.746;9.000;2023-03-23T17:04:05;16.40;95.40
3262;DHT22;1643;47.746;9.000;2023-03-23T17:06:31;16.50;95.00
3262;DHT22;1643;47.746;9.000;2023-03-23T17:08:57;16.50;95.10
3262;DHT22;1643;47.746;9.000;2023-03-23T17:11:22;16.40;95.20
3262;DHT22;1643;47.746;9.000;2023-03-23T17:13:48;16.50;94.70
3262;DHT22;1643;47.746;9.000;2023-03-23T17:16:14;16.50;94.80
3262;DHT22;1643;47.746;9.000;2023-03-23T17:18:39;16.50;94.60
3262;DHT22;1643;47.746;9.000;2023-03-23T17:21:05;16.40;94.60
3262;DHT22;1643;47.746;9.000;2023-03-23T17:23:32;16.40;94.70
3262;DHT22;1643;47.746;9.000;2023-03-23T17:25:57;16.40;94.40
3262;DHT22;1643;47.746;9.000;2023-03-23T17:28:23;16.40;94.50
3262;DHT22;1643;47.746;9.000;2023-03-23T17:30:51;16.30;94.60
3262;DHT22;1643;47.746;9.000;2023-03-23T17:33:17;16.40;94.80
3262;DHT22;1643;47.746;9.000;2023-03-23T17:35:45;16.40;94.80
3262;DHT22;1643;47.746;9.000;2023-03-23T17:38:11;16.50;94.30
3262;DHT22;1643;47.746;9.000;2023-03-23T17:40:36;16.40;94.40
3262;DHT22;1643;47.746;9.000;2023-03-23T17:43:02;16.30;94.50
3262;DHT22;1643;47.746;9.000;2023-03-23T17:45:28;16.20;94.60
3262;DHT22;1643;47.746;9.000;2023-03-23T17:47:54;16.10;94.50
3262;DHT22;1643;47.746;9.000;2023-03-23T17:50:19;16.20;94.60
3262;DHT22;1643;47.746;9.000;2023-03-23T17:52:45;16.20;94.40
3262;DHT22;1643;47.746;9.000;2023-03-23T17:55:11;16.30;94.20
3262;DHT22;1643;47.746;9.000;2023-03-23T17:57:36;16.30;94.20
3262;DHT22;1643;47.746;9.000;2023-03-23T18:00:05;16.30;94.30
3262;DHT22;1643;47.746;9.000;2023-03-23T18:02:35;16.30;94.40
3262;DHT22;1643;47.746;9.000;2023-03-23T18:05:01;16.20;94.40